sensor_id;sensor_type;location;lat;lon;timestamp;P1;durP1;ratioP1;P2;durP2;ratioP2
72439;SDS011;60446;50.752;4.352;2023-03-17T00:00:42;4.07;;;1.10;;
72439;SDS011;60446;50.752;4.352;2023-03-17T00:03:25;4.15;;;1.25;;
72439;SDS011;60446;50.752;4.352;2023-03-17T00:05:55;4.32;;;1.20;;
72439;SDS011;60446;50.752;4.352;2023-03-17T00:08:27;4.57;;;1.35;;
72439;SDS011;60446;50.752;4.352;2023-03-17T00:10:58;5.83;;;0.90;;
72439;SDS011;60446;50.752;4.352;2023-03-17T00:13:27;4.85;;;1.08;;
72439;SDS011;60446;50.752;4.352;2023-03-17T00:16:00;5.68;;;1.58;;
72439;SDS011;60446;50.752;4.352;2023-03-17T00:18:30;4.55;;;1.02;;
72439;SDS011;60446;50.752;4.352;2023-03-17T00:20:58;5.50;;;0.93;;
72439;SDS011;60446;50.752;4.352;2023-03-17T00:23:25;5.37;;;1.13;;
72439;SDS011;60446;50.752;4.352;2023-03-17T00:25:53;5.38;;;1.00;;
72439;SDS011;60446;50.752;4.352;2023-03-17T00:28:21;4.32;;;0.98;;
72439;SDS011;60446;50.752;4.352;2023-03-17T00:30:54;4.43;;;0.90;;
72439;SDS011;60446;50.752;4.352;2023-03-17T00:33:25;5.50;;;0.80;;
72439;SDS011;60446;50.752;4.352;2023-03-17T00:35:55;4.67;;;1.17;;
72439;SDS011;60446;50.752;4.352;2023-03-17T00:38:24;4.80;;;1.15;;
72439;SDS011;60446;50.752;4.352;2023-03-17T00:40:51;5.18;;;0.75;;
72439;SDS011;60446;50.752;4.352;2023-03-17T00:43:20;4.43;;;0.75;;
72439;SDS011;60446;50.752;4.352;2023-03-17T00:45:47;3.85;;;0.85;;
72439;SDS011;60446;50.752;4.352;2023-03-17T00:48:15;4.10;;;0.90;;
72439;SDS011;60446;50.752;4.352;2023-03-17T00:50:46;3.30;;;0.73;;
72439;SDS011;60446;50.752;4.352;2023-03-17T00:53:17;3.85;;;0.85;;
72439;SDS011;60446;50.752;4.352;2023-03-17T00:55:47;5.30;;;1.20;;
72439;SDS011;60446;50.752;4.352;2023-03-17T00:58:26;4.22;;;0.60;;
72439;SDS011;60446;50.752;4.352;2023-03-17T01:00:58;5.33;;;1.13;;
72439;SDS011;60446;50.752;4.352;2023-03-17T01:03:26;8.88;;;0.95;;
72439;SDS011;60446;50.752;4.352;2023-03-17T01:05:54;4.18;;;0.88;;
72439;SDS011;60446;50.752;4.352;2023-03-17T01:08:23;5.82;;;0.90;;
72439;SDS011;60446;50.752;4.352;2023-03-17T01:10:51;3.88;;;0.82;;
72439;SDS011;60446;50.752;4.352;2023-03-17T01:13:18;3.60;;;0.77;;
72439;SDS011;60446;50.752;4.352;2023-03-17T01:15:46;3.30;;;0.80;;
72439;SDS011;60446;50.752;4.352;2023-03-17T01:18:16;3.67;;;1.00;;
72439;SDS011;60446;50.752;4.352;2023-03-17T01:20:47;7.07;;;0.80;;
72439;SDS011;60446;50.752;4.352;2023-03-17T01:23:16;3.00;;;1.02;;
72439;SDS011;60446;50.752;4.352;2023-03-17T01:25:43;5.00;;;0.70;;
72439;SDS011;60446;50.752;4.352;2023-03-17T01:28:14;3.88;;;0.60;;
72439;SDS011;60446;50.752;4.352;2023-03-17T01:30:44;4.38;;;1.17;;
72439;SDS011;60446;50.752;4.352;2023-03-17T01:33:12;3.70;;;0.60;;
72439;SDS011;60446;50.752;4.352;2023-03-17T01:35:41;4.15;;;0.63;;
72439;SDS011;60446;50.752;4.352;2023-03-17T01:38:11;3.93;;;0.80;;
72439;SDS011;60446;50.752;4.352;2023-03-17T01:40:47;4.20;;;0.90;;
72439;SDS011;60446;50.752;4.352;2023-03-17T01:43:24;3.97;;;0.90;;
72439;SDS011;60446;50.752;4.352;2023-03-17T01:46:37;3.22;;;0.80;;
72439;SDS011;60446;50.752;4.352;2023-03-17T01:48:54;3.20;;;0.90;;
72439;SDS011;60446;50.752;4.352;2023-03-17T01:51:28;3.60;;;1.00;;
72439;SDS011;60446;50.752;4.352;2023-03-17T01:54:23;3.65;;;0.80;;
72439;SDS011;60446;50.752;4.352;2023-03-17T01:59:51;3.67;;;0.90;;
72439;SDS011;60446;50.752;4.352;2023-03-17T02:02:23;3.92;;;0.95;;
72439;SDS011;60446;50.752;4.352;2023-03-17T02:05:00;3.53;;;0.80;;
72439;SDS011;60446;50.752;4.352;2023-03-17T02:07:29;5.25;;;0.90;;
72439;SDS011;60446;50.752;4.352;2023-03-17T02:09:56;3.55;;;0.82;;
72439;SDS011;60446;50.752;4.352;2023-03-17T02:12:25;4.55;;;0.70;;
72439;SDS011;60446;50.752;4.352;2023-03-17T02:14:54;4.22;;;0.85;;
72439;SDS011;60446;50.752;4.352;2023-03-17T02:17:23;3.80;;;0.70;;
72439;SDS011;60446;50.752;4.352;2023-03-17T02:19:52;4.22;;;0.80;;
72439;SDS011;60446;50.752;4.352;2023-03-17T02:22:21;3.83;;;0.77;;
72439;SDS011;60446;50.752;4.352;2023-03-17T02:24:54;3.20;;;0.75;;
72439;SDS011;60446;50.752;4.352;2023-03-17T02:27:34;5.72;;;1.17;;
72439;SDS011;60446;50.752;4.352;2023-03-17T02:30:05;3.40;;;0.60;;
72439;SDS011;60446;50.752;4.352;2023-03-17T02:32:35;3.75;;;0.88;;
72439;SDS011;60446;50.752;4.352;2023-03-17T02:35:03;3.47;;;1.02;;
72439;SDS011;60446;50.752;4.352;2023-03-17T02:37:35;4.25;;;0.80;;
72439;SDS011;60446;50.752;4.352;2023-03-17T02:40:03;4.68;;;1.00;;
72439;SDS011;60446;50.752;4.352;2023-03-17T02:42:33;3.20;;;0.77;;
72439;SDS011;60446;50.752;4.352;2023-03-17T02:45:01;7.45;;;1.40;;
72439;SDS011;60446;50.752;4.352;2023-03-17T02:47:28;4.03;;;1.02;;
72439;SDS011;60446;50.752;4.352;2023-03-17T02:49:55;3.35;;;0.60;;
72439;SDS011;60446;50.752;4.352;2023-03-17T02:52:22;5.07;;;0.80;;
72439;SDS011;60446;50.752;4.352;2023-03-17T02:54:50;3.73;;;0.70;;
72439;SDS011;60446;50.752;4.352;2023-03-17T02:57:18;4.32;;;0.77;;
72439;SDS011;60446;50.752;4.352;2023-03-17T02:59:45;3.90;;;1.10;;
72439;SDS011;60446;50.752;4.352;2023-03-17T03:02:12;3.15;;;0.80;;
72439;SDS011;60446;50.752;4.352;2023-03-17T03:04:39;3.30;;;0.80;;
72439;SDS011;60446;50.752;4.352;2023-03-17T03:07:07;3.53;;;0.60;;
72439;SDS011;60446;50.752;4.352;2023-03-17T03:09:35;4.85;;;1.08;;
72439;SDS011;60446;50.752;4.352;2023-03-17T03:12:03;3.47;;;0.70;;
72439;SDS011;60446;50.752;4.352;2023-03-17T03:14:31;3.95;;;0.88;;
72439;SDS011;60446;50.752;4.352;2023-03-17T03:16:58;3.85;;;0.70;;
72439;SDS011;60446;50.752;4.352;2023-03-17T03:19:25;2.87;;;0.83;;
72439;SDS011;60446;50.752;4.352;2023-03-17T03:21:53;5.72;;;1.20;;
72439;SDS011;60446;50.752;4.352;2023-03-17T03:24:20;3.35;;;0.80;;
72439;SDS011;60446;50.752;4.352;2023-03-17T03:26:48;3.58;;;0.80;;
72439;SDS011;60446;50.752;4.352;2023-03-17T03:29:15;6.30;;;0.77;;
72439;SDS011;60446;50.752;4.352;2023-03-17T03:31:42;5.40;;;1.10;;
72439;SDS011;60446;50.752;4.352;2023-03-17T03:34:09;4.68;;;0.90;;
72439;SDS011;60446;50.752;4.352;2023-03-17T03:36:36;3.45;;;0.80;;
72439;SDS011;60446;50.752;4.352;2023-03-17T03:39:03;4.43;;;0.77;;
72439;SDS011;60446;50.752;4.352;2023-03-17T03:41:30;4.13;;;1.20;;
72439;SDS011;60446;50.752;4.352;2023-03-17T03:43:58;2.73;;;0.70;;
72439;SDS011;60446;50.752;4.352;2023-03-17T03:46:25;3.63;;;0.70;;
72439;SDS011;60446;50.752;4.352;2023-03-17T03:48:53;3.67;;;0.90;;
72439;SDS011;60446;50.752;4.352;2023-03-17T03:51:21;4.30;;;1.00;;
72439;SDS011;60446;50.752;4.352;2023-03-17T03:53:48;4.38;;;1.05;;
72439;SDS011;60446;50.752;4.352;2023-03-17T03:56:15;6.30;;;0.90;;
72439;SDS011;60446;50.752;4.352;2023-03-17T03:58:42;2.88;;;0.75;;
72439;SDS011;60446;50.752;4.352;2023-03-17T04:01:09;5.82;;;1.40;;
72439;SDS011;60446;50.752;4.352;2023-03-17T04:03:37;4.40;;;0.80;;
72439;SDS011;60446;50.752;4.352;2023-03-17T04:06:04;3.75;;;0.90;;
72439;SDS011;60446;50.752;4.352;2023-03-17T04:08:31;3.47;;;0.90;;
72439;SDS011;60446;50.752;4.352;2023-03-17T04:10:59;4.95;;;0.80;;
72439;SDS011;60446;50.752;4.352;2023-03-17T04:13:26;4.50;;;0.90;;
72439;SDS011;60446;50.752;4.352;2023-03-17T04:15:53;4.78;;;0.95;;
72439;SDS011;60446;50.752;4.352;2023-03-17T04:18:20;4.63;;;0.90;;
72439;SDS011;60446;50.752;4.352;2023-03-17T04:20:47;3.77;;;0.70;;
72439;SDS011;60446;50.752;4.352;2023-03-17T04:23:14;3.78;;;0.60;;
72439;SDS011;60446;50.752;4.352;2023-03-17T04:25:42;7.40;;;1.10;;
72439;SDS011;60446;50.752;4.352;2023-03-17T04:28:10;3.50;;;0.80;;
72439;SDS011;60446;50.752;4.352;2023-03-17T04:30:37;4.75;;;0.90;;
72439;SDS011;60446;50.752;4.352;2023-03-17T04:33:04;3.07;;;0.73;;
72439;SDS011;60446;50.752;4.352;2023-03-17T04:35:32;4.32;;;0.88;;
72439;SDS011;60446;50.752;4.352;2023-03-17T04:37:59;5.63;;;0.82;;
72439;SDS011;60446;50.752;4.352;2023-03-17T04:40:26;4.10;;;0.70;;
72439;SDS011;60446;50.752;4.352;2023-03-17T04:42:54;6.80;;;1.10;;
72439;SDS011;60446;50.752;4.352;2023-03-17T04:45:21;4.83;;;0.90;;
72439;SDS011;60446;50.752;4.352;2023-03-17T04:47:48;3.55;;;0.63;;
72439;SDS011;60446;50.752;4.352;2023-03-17T04:50:16;4.57;;;0.80;;
72439;SDS011;60446;50.752;4.352;2023-03-17T04:52:43;3.60;;;0.73;;
72439;SDS011;60446;50.752;4.352;2023-03-17T04:55:10;3.92;;;0.82;;
72439;SDS011;60446;50.752;4.352;2023-03-17T04:57:38;3.40;;;0.70;;
72439;SDS011;60446;50.752;4.352;2023-03-17T05:00:05;3.80;;;0.52;;
72439;SDS011;60446;50.752;4.352;2023-03-17T05:02:33;3.78;;;0.68;;
72439;SDS011;60446;50.752;4.352;2023-03-17T05:05:01;3.50;;;0.52;;
72439;SDS011;60446;50.752;4.352;2023-03-17T05:07:28;5.07;;;0.80;;
72439;SDS011;60446;50.752;4.352;2023-03-17T05:09:57;4.07;;;0.93;;
72439;SDS011;60446;50.752;4.352;2023-03-17T05:12:24;4.13;;;0.73;;
72439;SDS011;60446;50.752;4.352;2023-03-17T05:14:52;3.55;;;1.00;;
72439;SDS011;60446;50.752;4.352;2023-03-17T05:17:19;4.45;;;0.93;;
72439;SDS011;60446;50.752;4.352;2023-03-17T05:19:46;4.53;;;1.20;;
72439;SDS011;60446;50.752;4.352;2023-03-17T05:22:13;8.53;;;0.90;;
72439;SDS011;60446;50.752;4.352;2023-03-17T05:24:41;3.65;;;0.75;;
72439;SDS011;60446;50.752;4.352;2023-03-17T05:27:08;3.95;;;0.80;;
72439;SDS011;60446;50.752;4.352;2023-03-17T05:29:35;6.30;;;1.15;;
72439;SDS011;60446;50.752;4.352;2023-03-17T05:32:03;6.28;;;1.10;;
72439;SDS011;60446;50.752;4.352;2023-03-17T05:34:31;5.80;;;1.20;;
72439;SDS011;60446;50.752;4.352;2023-03-17T05:36:58;5.25;;;0.95;;
72439;SDS011;60446;50.752;4.352;2023-03-17T05:39:26;6.38;;;1.48;;
72439;SDS011;60446;50.752;4.352;2023-03-17T05:41:53;7.65;;;1.10;;
72439;SDS011;60446;50.752;4.352;2023-03-17T05:44:22;3.90;;;0.88;;
72439;SDS011;60446;50.752;4.352;2023-03-17T05:46:50;5.20;;;1.07;;
72439;SDS011;60446;50.752;4.352;2023-03-17T05:49:17;3.70;;;0.95;;
72439;SDS011;60446;50.752;4.352;2023-03-17T05:51:44;4.63;;;1.10;;
72439;SDS011;60446;50.752;4.352;2023-03-17T05:54:11;6.05;;;0.90;;
72439;SDS011;60446;50.752;4.352;2023-03-17T05:56:39;4.32;;;0.80;;
72439;SDS011;60446;50.752;4.352;2023-03-17T05:59:06;4.80;;;0.87;;
72439;SDS011;60446;50.752;4.352;2023-03-17T06:01:34;5.75;;;0.80;;
72439;SDS011;60446;50.752;4.352;2023-03-17T06:04:02;5.45;;;1.23;;
72439;SDS011;60446;50.752;4.352;2023-03-17T06:06:29;5.45;;;0.80;;
72439;SDS011;60446;50.752;4.352;2023-03-17T06:08:57;5.93;;;1.00;;
72439;SDS011;60446;50.752;4.352;2023-03-17T06:11:25;5.70;;;0.93;;
72439;SDS011;60446;50.752;4.352;2023-03-17T06:13:52;4.63;;;1.00;;
72439;SDS011;60446;50.752;4.352;2023-03-17T06:16:19;4.32;;;1.08;;
72439;SDS011;60446;50.752;4.352;2023-03-17T06:18:47;4.72;;;1.02;;
72439;SDS011;60446;50.752;4.352;2023-03-17T06:21:15;5.35;;;1.10;;
72439;SDS011;60446;50.752;4.352;2023-03-17T06:23:42;6.17;;;1.10;;
72439;SDS011;60446;50.752;4.352;2023-03-17T06:26:09;3.88;;;1.10;;
72439;SDS011;60446;50.752;4.352;2023-03-17T06:28:36;5.95;;;1.40;;
72439;SDS011;60446;50.752;4.352;2023-03-17T06:31:03;7.85;;;1.35;;
72439;SDS011;60446;50.752;4.352;2023-03-17T06:33:32;6.15;;;1.95;;
72439;SDS011;60446;50.752;4.352;2023-03-17T06:36:00;11.90;;;3.33;;
72439;SDS011;60446;50.752;4.352;2023-03-17T06:38:28;12.65;;;3.78;;
72439;SDS011;60446;50.752;4.352;2023-03-17T06:40:55;19.50;;;4.60;;
72439;SDS011;60446;50.752;4.352;2023-03-17T06:43:23;23.38;;;5.78;;
72439;SDS011;60446;50.752;4.352;2023-03-17T06:45:50;15.13;;;4.57;;
72439;SDS011;60446;50.752;4.352;2023-03-17T06:48:18;14.37;;;4.90;;
72439;SDS011;60446;50.752;4.352;2023-03-17T06:50:45;19.35;;;5.03;;
72439;SDS011;60446;50.752;4.352;2023-03-17T06:53:13;14.70;;;4.85;;
72439;SDS011;60446;50.752;4.352;2023-03-17T06:55:40;15.45;;;4.60;;
72439;SDS011;60446;50.752;4.352;2023-03-17T06:58:08;8.57;;;2.75;;
72439;SDS011;60446;50.752;4.352;2023-03-17T07:00:35;10.90;;;2.53;;
72439;SDS011;60446;50.752;4.352;2023-03-17T07:03:06;9.15;;;2.40;;
72439;SDS011;60446;50.752;4.352;2023-03-17T07:05:35;11.82;;;3.15;;
72439;SDS011;60446;50.752;4.352;2023-03-17T07:08:04;9.52;;;2.72;;
72439;SDS011;60446;50.752;4.352;2023-03-17T07:10:32;8.93;;;2.58;;
72439;SDS011;60446;50.752;4.352;2023-03-17T07:12:59;8.53;;;2.17;;
72439;SDS011;60446;50.752;4.352;2023-03-17T07:15:27;7.53;;;2.08;;
72439;SDS011;60446;50.752;4.352;2023-03-17T07:18:00;5.35;;;1.50;;
72439;SDS011;60446;50.752;4.352;2023-03-17T07:20:27;7.20;;;1.60;;
72439;SDS011;60446;50.752;4.352;2023-03-17T07:22:55;6.88;;;1.50;;
72439;SDS011;60446;50.752;4.352;2023-03-17T07:25:23;6.47;;;1.67;;
72439;SDS011;60446;50.752;4.352;2023-03-17T07:27:50;8.55;;;1.75;;
72439;SDS011;60446;50.752;4.352;2023-03-17T07:30:18;6.20;;;1.60;;
72439;SDS011;60446;50.752;4.352;2023-03-17T07:32:46;5.75;;;1.77;;
72439;SDS011;60446;50.752;4.352;2023-03-17T07:35:14;4.80;;;1.10;;
72439;SDS011;60446;50.752;4.352;2023-03-17T07:37:41;4.50;;;1.73;;
72439;SDS011;60446;50.752;4.352;2023-03-17T07:40:10;5.10;;;1.58;;
72439;SDS011;60446;50.752;4.352;2023-03-17T07:42:37;5.30;;;1.65;;
72439;SDS011;60446;50.752;4.352;2023-03-17T07:45:05;6.43;;;1.77;;
72439;SDS011;60446;50.752;4.352;2023-03-17T07:47:35;9.10;;;2.78;;
72439;SDS011;60446;50.752;4.352;2023-03-17T07:50:03;6.83;;;2.20;;
72439;SDS011;60446;50.752;4.352;2023-03-17T07:52:31;6.25;;;1.75;;
72439;SDS011;60446;50.752;4.352;2023-03-17T07:54:59;7.53;;;2.00;;
72439;SDS011;60446;50.752;4.352;2023-03-17T07:57:39;11.60;;;1.88;;
72439;SDS011;60446;50.752;4.352;2023-03-17T08:00:07;5.65;;;1.40;;
72439;SDS011;60446;50.752;4.352;2023-03-17T08:02:45;7.67;;;1.40;;
72439;SDS011;60446;50.752;4.352;2023-03-17T08:05:37;6.47;;;1.48;;
72439;SDS011;60446;50.752;4.352;2023-03-17T08:08:26;5.43;;;1.70;;
72439;SDS011;60446;50.752;4.352;2023-03-17T08:11:00;7.93;;;1.60;;
72439;SDS011;60446;50.752;4.352;2023-03-17T08:13:30;6.85;;;1.50;;
72439;SDS011;60446;50.752;4.352;2023-03-17T08:16:03;5.50;;;1.30;;
72439;SDS011;60446;50.752;4.352;2023-03-17T08:18:57;7.55;;;1.38;;
72439;SDS011;60446;50.752;4.352;2023-03-17T08:21:52;8.05;;;1.63;;
72439;SDS011;60446;50.752;4.352;2023-03-17T08:24:36;5.93;;;1.40;;
72439;SDS011;60446;50.752;4.352;2023-03-17T08:27:31;8.07;;;1.48;;
72439;SDS011;60446;50.752;4.352;2023-03-17T08:30:04;8.63;;;2.07;;
72439;SDS011;60446;50.752;4.352;2023-03-17T08:32:34;8.10;;;2.10;;
72439;SDS011;60446;50.752;4.352;2023-03-17T08:35:06;8.48;;;1.58;;
72439;SDS011;60446;50.752;4.352;2023-03-17T08:37:44;7.32;;;2.00;;
72439;SDS011;60446;50.752;4.352;2023-03-17T08:40:21;6.88;;;1.67;;
72439;SDS011;60446;50.752;4.352;2023-03-17T08:42:54;6.17;;;1.60;;
72439;SDS011;60446;50.752;4.352;2023-03-17T08:45:30;7.35;;;1.83;;
72439;SDS011;60446;50.752;4.352;2023-03-17T08:47:58;9.60;;;2.88;;
72439;SDS011;60446;50.752;4.352;2023-03-17T08:50:31;15.93;;;3.38;;
72439;SDS011;60446;50.752;4.352;2023-03-17T08:53:01;11.52;;;2.33;;
72439;SDS011;60446;50.752;4.352;2023-03-17T08:55:35;13.80;;;2.90;;
72439;SDS011;60446;50.752;4.352;2023-03-17T08:58:07;11.70;;;2.50;;
72439;SDS011;60446;50.752;4.352;2023-03-17T09:00:38;14.20;;;3.35;;
72439;SDS011;60446;50.752;4.352;2023-03-17T09:03:19;10.18;;;3.28;;
72439;SDS011;60446;50.752;4.352;2023-03-17T09:05:47;12.68;;;2.75;;
72439;SDS011;60446;50.752;4.352;2023-03-17T09:08:20;8.63;;;2.33;;
72439;SDS011;60446;50.752;4.352;2023-03-17T09:10:54;9.75;;;1.52;;
72439;SDS011;60446;50.752;4.352;2023-03-17T09:13:33;7.25;;;1.48;;
72439;SDS011;60446;50.752;4.352;2023-03-17T09:16:12;7.13;;;1.80;;
72439;SDS011;60446;50.752;4.352;2023-03-17T09:18:42;5.07;;;1.83;;
72439;SDS011;60446;50.752;4.352;2023-03-17T09:21:20;7.67;;;1.70;;
72439;SDS011;60446;50.752;4.352;2023-03-17T09:23:55;5.45;;;1.60;;
72439;SDS011;60446;50.752;4.352;2023-03-17T09:26:38;5.28;;;1.67;;
72439;SDS011;60446;50.752;4.352;2023-03-17T09:29:16;6.63;;;1.98;;
72439;SDS011;60446;50.752;4.352;2023-03-17T09:31:50;7.28;;;2.10;;
72439;SDS011;60446;50.752;4.352;2023-03-17T09:34:24;6.27;;;2.13;;
72439;SDS011;60446;50.752;4.352;2023-03-17T09:37:10;9.50;;;1.67;;
72439;SDS011;60446;50.752;4.352;2023-03-17T09:39:43;6.38;;;2.15;;
72439;SDS011;60446;50.752;4.352;2023-03-17T09:45:38;8.90;;;2.00;;
72439;SDS011;60446;50.752;4.352;2023-03-17T09:53:44;6.63;;;1.88;;
72439;SDS011;60446;50.752;4.352;2023-03-17T09:56:39;8.13;;;1.60;;
72439;SDS011;60446;50.752;4.352;2023-03-17T10:02:00;6.40;;;1.70;;
72439;SDS011;60446;50.752;4.352;2023-03-17T10:04:27;6.45;;;1.77;;
72439;SDS011;60446;50.752;4.352;2023-03-17T10:07:05;7.03;;;2.30;;
72439;SDS011;60446;50.752;4.352;2023-03-17T10:10:24;8.25;;;2.60;;
72439;SDS011;60446;50.752;4.352;2023-03-17T10:12:53;8.73;;;2.03;;
72439;SDS011;60446;50.752;4.352;2023-03-17T10:15:39;7.13;;;1.83;;
72439;SDS011;60446;50.752;4.352;2023-03-17T10:18:28;6.05;;;1.95;;
72439;SDS011;60446;50.752;4.352;2023-03-17T10:21:05;7.32;;;2.00;;
72439;SDS011;60446;50.752;4.352;2023-03-17T10:23:41;8.32;;;1.92;;
72439;SDS011;60446;50.752;4.352;2023-03-17T10:29:12;9.70;;;1.97;;
72439;SDS011;60446;50.752;4.352;2023-03-17T10:31:51;6.13;;;1.80;;
72439;SDS011;60446;50.752;4.352;2023-03-17T10:34:31;6.70;;;2.10;;
72439;SDS011;60446;50.752;4.352;2023-03-17T10:40:03;6.68;;;1.90;;
72439;SDS011;60446;50.752;4.352;2023-03-17T10:43:21;7.20;;;1.60;;
72439;SDS011;60446;50.752;4.352;2023-03-17T10:45:31;7.78;;;1.83;;
72439;SDS011;60446;50.752;4.352;2023-03-17T10:48:08;6.95;;;2.05;;
72439;SDS011;60446;50.752;4.352;2023-03-17T10:50:37;6.95;;;1.70;;
72439;SDS011;60446;50.752;4.352;2023-03-17T10:53:22;5.93;;;1.83;;
72439;SDS011;60446;50.752;4.352;2023-03-17T10:56:27;4.93;;;1.60;;
72439;SDS011;60446;50.752;4.352;2023-03-17T10:59:07;6.90;;;1.58;;
72439;SDS011;60446;50.752;4.352;2023-03-17T11:01:53;8.18;;;1.73;;
72439;SDS011;60446;50.752;4.352;2023-03-17T11:07:07;6.30;;;1.75;;
72439;SDS011;60446;50.752;4.352;2023-03-17T11:09:59;5.60;;;1.70;;
72439;SDS011;60446;50.752;4.352;2023-03-17T11:12:36;4.90;;;1.30;;
72439;SDS011;60446;50.752;4.352;2023-03-17T11:15:14;5.85;;;1.90;;
72439;SDS011;60446;50.752;4.352;2023-03-17T11:20:33;8.65;;;1.92;;
72439;SDS011;60446;50.752;4.352;2023-03-17T11:23:21;9.07;;;1.80;;
72439;SDS011;60446;50.752;4.352;2023-03-17T11:28:49;6.63;;;1.90;;
72439;SDS011;60446;50.752;4.352;2023-03-17T11:31:48;8.38;;;1.60;;
72439;SDS011;60446;50.752;4.352;2023-03-17T11:37:24;6.10;;;1.63;;
72439;SDS011;60446;50.752;4.352;2023-03-17T11:40:31;8.82;;;1.92;;
72439;SDS011;60446;50.752;4.352;2023-03-17T11:43:57;6.82;;;1.77;;
72439;SDS011;60446;50.752;4.352;2023-03-17T11:46:57;8.05;;;1.60;;
72439;SDS011;60446;50.752;4.352;2023-03-17T11:56:32;6.18;;;1.35;;
72439;SDS011;60446;50.752;4.352;2023-03-17T11:59:14;8.35;;;1.90;;
72439;SDS011;60446;50.752;4.352;2023-03-17T12:05:09;5.70;;;1.58;;
72439;SDS011;60446;50.752;4.352;2023-03-17T12:08:03;4.90;;;1.40;;
72439;SDS011;60446;50.752;4.352;2023-03-17T12:10:53;5.63;;;1.70;;
72439;SDS011;60446;50.752;4.352;2023-03-17T12:13:34;8.80;;;1.60;;
72439;SDS011;60446;50.752;4.352;2023-03-17T12:16:32;6.70;;;1.60;;
72439;SDS011;60446;50.752;4.352;2023-03-17T12:22:21;10.33;;;1.43;;
72439;SDS011;60446;50.752;4.352;2023-03-17T12:28:20;4.95;;;1.60;;
72439;SDS011;60446;50.752;4.352;2023-03-17T12:31:08;7.05;;;2.10;;
72439;SDS011;60446;50.752;4.352;2023-03-17T12:37:04;5.23;;;1.50;;
72439;SDS011;60446;50.752;4.352;2023-03-17T12:39:36;5.43;;;1.50;;
72439;SDS011;60446;50.752;4.352;2023-03-17T12:52:13;5.70;;;1.50;;
72439;SDS011;60446;50.752;4.352;2023-03-17T12:55:31;6.45;;;1.88;;
72439;SDS011;60446;50.752;4.352;2023-03-17T13:07:31;4.57;;;1.00;;
72439;SDS011;60446;50.752;4.352;2023-03-17T13:10:15;4.65;;;1.48;;
72439;SDS011;60446;50.752;4.352;2023-03-17T13:15:55;5.97;;;1.65;;
72439;SDS011;60446;50.752;4.352;2023-03-17T13:18:42;5.90;;;1.50;;
72439;SDS011;60446;50.752;4.352;2023-03-17T13:21:14;6.30;;;1.67;;
72439;SDS011;60446;50.752;4.352;2023-03-17T13:23:59;7.78;;;1.65;;
72439;SDS011;60446;50.752;4.352;2023-03-17T13:27:08;7.95;;;2.17;;
72439;SDS011;60446;50.752;4.352;2023-03-17T13:29:47;6.45;;;1.48;;
72439;SDS011;60446;50.752;4.352;2023-03-17T13:32:31;6.50;;;1.20;;
72439;SDS011;60446;50.752;4.352;2023-03-17T13:35:13;3.97;;;1.47;;
72439;SDS011;60446;50.752;4.352;2023-03-17T13:47:24;5.70;;;1.70;;
72439;SDS011;60446;50.752;4.352;2023-03-17T13:50:11;6.57;;;1.67;;
72439;SDS011;60446;50.752;4.352;2023-03-17T13:52:46;5.13;;;1.70;;
72439;SDS011;60446;50.752;4.352;2023-03-17T13:55:39;5.80;;;1.95;;
72439;SDS011;60446;50.752;4.352;2023-03-17T14:05:07;6.23;;;1.47;;
72439;SDS011;60446;50.752;4.352;2023-03-17T14:07:57;6.47;;;1.50;;
72439;SDS011;60446;50.752;4.352;2023-03-17T14:10:36;6.18;;;1.40;;
72439;SDS011;60446;50.752;4.352;2023-03-17T14:13:16;5.13;;;1.55;;
72439;SDS011;60446;50.752;4.352;2023-03-17T14:16:05;5.35;;;1.58;;
72439;SDS011;60446;50.752;4.352;2023-03-17T14:18:59;6.30;;;1.60;;
72439;SDS011;60446;50.752;4.352;2023-03-17T14:21:48;5.60;;;1.45;;
72439;SDS011;60446;50.752;4.352;2023-03-17T14:24:31;6.78;;;1.60;;
72439;SDS011;60446;50.752;4.352;2023-03-17T14:27:07;5.53;;;1.42;;
72439;SDS011;60446;50.752;4.352;2023-03-17T14:29:43;5.15;;;1.50;;
72439;SDS011;60446;50.752;4.352;2023-03-17T14:32:22;4.00;;;1.07;;
72439;SDS011;60446;50.752;4.352;2023-03-17T14:34:57;6.45;;;1.40;;
72439;SDS011;60446;50.752;4.352;2023-03-17T14:37:27;6.68;;;1.73;;
72439;SDS011;60446;50.752;4.352;2023-03-17T14:39:55;5.18;;;1.10;;
72439;SDS011;60446;50.752;4.352;2023-03-17T14:42:27;7.40;;;1.77;;
72439;SDS011;60446;50.752;4.352;2023-03-17T14:45:19;6.03;;;1.40;;
72439;SDS011;60446;50.752;4.352;2023-03-17T14:48:18;4.85;;;1.35;;
72439;SDS011;60446;50.752;4.352;2023-03-17T14:51:02;3.47;;;0.93;;
72439;SDS011;60446;50.752;4.352;2023-03-17T14:53:39;6.30;;;1.50;;
72439;SDS011;60446;50.752;4.352;2023-03-17T14:56:24;4.13;;;1.20;;
72439;SDS011;60446;50.752;4.352;2023-03-17T14:59:17;5.37;;;1.37;;
72439;SDS011;60446;50.752;4.352;2023-03-17T15:01:55;7.57;;;1.83;;
72439;SDS011;60446;50.752;4.352;2023-03-17T15:04:28;5.20;;;1.35;;
72439;SDS011;60446;50.752;4.352;2023-03-17T15:07:04;4.07;;;1.25;;
72439;SDS011;60446;50.752;4.352;2023-03-17T15:12:18;3.60;;;1.07;;
72439;SDS011;60446;50.752;4.352;2023-03-17T15:15:00;5.63;;;1.40;;
72439;SDS011;60446;50.752;4.352;2023-03-17T15:17:54;4.57;;;1.17;;
72439;SDS011;60446;50.752;4.352;2023-03-17T15:20:31;4.13;;;1.20;;
72439;SDS011;60446;50.752;4.352;2023-03-17T15:23:13;4.18;;;1.38;;
72439;SDS011;60446;50.752;4.352;2023-03-17T15:25:49;9.47;;;1.30;;
72439;SDS011;60446;50.752;4.352;2023-03-17T15:28:23;5.25;;;1.08;;
72439;SDS011;60446;50.752;4.352;2023-03-17T15:31:14;5.72;;;1.30;;
72439;SDS011;60446;50.752;4.352;2023-03-17T15:34:05;6.75;;;1.58;;
72439;SDS011;60446;50.752;4.352;2023-03-17T15:36:38;4.25;;;1.20;;
72439;SDS011;60446;50.752;4.352;2023-03-17T15:39:20;7.57;;;1.23;;
72439;SDS011;60446;50.752;4.352;2023-03-17T15:41:57;6.35;;;1.50;;
72439;SDS011;60446;50.752;4.352;2023-03-17T15:44:27;5.63;;;1.50;;
72439;SDS011;60446;50.752;4.352;2023-03-17T15:47:04;4.32;;;1.10;;
72439;SDS011;60446;50.752;4.352;2023-03-17T15:49:40;5.45;;;1.40;;
72439;SDS011;60446;50.752;4.352;2023-03-17T15:52:14;5.23;;;1.73;;
72439;SDS011;60446;50.752;4.352;2023-03-17T15:54:50;8.68;;;1.40;;
72439;SDS011;60446;50.752;4.352;2023-03-17T15:57:23;7.03;;;1.48;;
72439;SDS011;60446;50.752;4.352;2023-03-17T15:59:56;8.45;;;1.70;;
72439;SDS011;60446;50.752;4.352;2023-03-17T16:02:37;5.82;;;1.48;;
72439;SDS011;60446;50.752;4.352;2023-03-17T16:05:20;6.23;;;1.83;;
72439;SDS011;60446;50.752;4.352;2023-03-17T16:07:54;7.75;;;2.22;;
72439;SDS011;60446;50.752;4.352;2023-03-17T16:10:25;5.70;;;1.77;;
72439;SDS011;60446;50.752;4.352;2023-03-17T16:13:00;6.10;;;1.45;;
72439;SDS011;60446;50.752;4.352;2023-03-17T16:15:31;6.75;;;1.60;;
72439;SDS011;60446;50.752;4.352;2023-03-17T16:18:15;6.33;;;2.03;;
72439;SDS011;60446;50.752;4.352;2023-03-17T16:20:45;5.22;;;1.40;;
72439;SDS011;60446;50.752;4.352;2023-03-17T16:23:20;6.80;;;1.95;;
72439;SDS011;60446;50.752;4.352;2023-03-17T16:26:01;5.95;;;1.65;;
72439;SDS011;60446;50.752;4.352;2023-03-17T16:28:42;10.10;;;2.38;;
72439;SDS011;60446;50.752;4.352;2023-03-17T16:31:30;9.37;;;1.70;;
72439;SDS011;60446;50.752;4.352;2023-03-17T16:34:08;7.18;;;1.40;;
72439;SDS011;60446;50.752;4.352;2023-03-17T16:36:44;6.70;;;1.95;;
72439;SDS011;60446;50.752;4.352;2023-03-17T16:39:21;6.07;;;1.60;;
72439;SDS011;60446;50.752;4.352;2023-03-17T16:41:53;5.95;;;1.63;;
72439;SDS011;60446;50.752;4.352;2023-03-17T16:44:21;5.17;;;1.70;;
72439;SDS011;60446;50.752;4.352;2023-03-17T16:46:50;7.30;;;2.20;;
72439;SDS011;60446;50.752;4.352;2023-03-17T16:49:28;7.65;;;2.60;;
72439;SDS011;60446;50.752;4.352;2023-03-17T16:51:55;8.50;;;2.25;;
72439;SDS011;60446;50.752;4.352;2023-03-17T16:54:25;7.22;;;2.40;;
72439;SDS011;60446;50.752;4.352;2023-03-17T16:57:00;6.40;;;2.03;;
72439;SDS011;60446;50.752;4.352;2023-03-17T16:59:41;7.32;;;2.30;;
72439;SDS011;60446;50.752;4.352;2023-03-17T17:02:12;8.05;;;2.00;;